createdAt,value
2018-02-12T00:02:26.021Z,223.00
2018-02-12T00:04:53.524Z,214.47
2018-02-12T00:07:21.035Z,216.27
2018-02-12T00:09:48.564Z,201.50
2018-02-12T00:12:16.077Z,192.63
2018-02-12T00:14:43.594Z,185.23
2018-02-12T00:17:11.124Z,199.90
2018-02-12T00:19:38.638Z,209.20
2018-02-12T00:22:06.971Z,239.27
2018-02-12T00:24:34.499Z,226.13
2018-02-12T00:27:02.008Z,240.97
2018-02-12T00:29:29.513Z,221.30
2018-02-12T00:31:57.041Z,215.83
2018-02-12T00:34:24.552Z,207.87
2018-02-12T00:36:52.088Z,220.17
2018-02-12T00:39:20.485Z,197.47
2018-02-12T00:41:47.992Z,207.07
2018-02-12T00:44:15.493Z,181.50
2018-02-12T00:46:43.810Z,181.87
2018-02-12T00:49:11.316Z,174.37
2018-02-12T00:51:38.816Z,165.73
2018-02-12T00:54:06.443Z,157.80
2018-02-12T00:56:33.957Z,150.03
2018-02-12T00:59:01.465Z,146.50
2018-02-12T01:01:29.013Z,145.87
2018-02-12T01:03:56.517Z,139.93
2018-02-12T01:06:24.787Z,137.10
2018-02-12T01:08:52.332Z,122.60
2018-02-12T01:11:19.836Z,122.07
2018-02-12T01:13:48.116Z,115.77
2018-02-12T01:16:16.425Z,123.60
2018-02-12T01:18:43.943Z,124.13
2018-02-12T01:21:12.216Z,110.83
2018-02-12T01:23:39.851Z,108.80
2018-02-12T01:26:07.354Z,112.03
2018-02-12T01:28:35.632Z,100.70
2018-02-12T01:31:03.927Z,105.13
2018-02-12T01:33:32.190Z,90.60
2018-02-12T01:35:59.688Z,97.83
2018-02-12T01:38:27.212Z,94.87
2018-02-12T01:40:54.721Z,105.90
2018-02-12T01:43:22.221Z,112.83
2018-02-12T01:45:49.757Z,120.00
2018-02-12T01:48:17.265Z,100.67
2018-02-12T01:50:44.776Z,108.13
2018-02-12T01:53:12.312Z,107.53
2018-02-12T01:55:40.584Z,106.13
2018-02-12T01:58:08.889Z,104.70
2018-02-12T02:00:36.394Z,92.97
2018-02-12T02:03:03.896Z,94.80
2018-02-12T02:05:32.297Z,93.17
2018-02-12T02:07:59.795Z,97.40
2018-02-12T02:10:27.296Z,93.43
2018-02-12T02:12:55.587Z,92.47
2018-02-12T02:15:23.868Z,89.87
2018-02-12T02:17:52.148Z,91.10
2018-02-12T02:20:20.431Z,85.13
2018-02-12T02:22:48.715Z,88.30
2018-02-12T02:25:16.220Z,83.23
2018-02-12T02:27:43.744Z,82.07
2018-02-12T02:30:11.257Z,83.93
2018-02-12T02:32:38.760Z,82.20
2018-02-12T02:35:07.105Z,87.70
2018-02-12T02:37:34.619Z,81.97
2018-02-12T02:40:02.130Z,78.10
2018-02-12T02:42:30.425Z,80.13
2018-02-12T02:44:57.936Z,82.17
2018-02-12T02:47:25.452Z,80.07
2018-02-12T02:49:52.981Z,74.50
2018-02-12T02:52:20.494Z,84.40
2018-02-12T02:54:48.767Z,83.90
2018-02-12T02:57:17.048Z,80.17
2018-02-12T02:59:45.323Z,78.70
2018-02-12T03:02:13.617Z,71.67
2018-02-12T03:04:41.882Z,72.73
2018-02-12T03:07:09.388Z,65.43
2018-02-12T03:09:36.907Z,58.53
2018-02-12T03:12:04.424Z,59.23
2018-02-12T03:14:31.934Z,58.50
2018-02-12T03:16:59.463Z,57.67
2018-02-12T03:19:26.969Z,57.33
2018-02-12T03:21:55.240Z,61.90
2018-02-12T03:24:22.772Z,57.00
2018-02-12T03:26:51.272Z,51.33
2018-02-12T03:29:18.773Z,49.90
2018-02-12T03:31:47.069Z,55.93
2018-02-12T03:34:14.574Z,58.00
2018-02-12T03:36:42.092Z,56.80
2018-02-12T03:39:09.632Z,63.27
2018-02-12T03:41:37.900Z,64.00
2018-02-12T03:44:05.404Z,51.90
2018-02-12T03:46:32.925Z,49.30
2018-02-12T03:49:00.437Z,52.90
2018-02-12T03:51:27.957Z,44.97
2018-02-12T03:53:55.678Z,45.60
2018-02-12T03:56:23.201Z,46.40
2018-02-12T03:58:51.473Z,48.40
2018-02-12T04:01:19.778Z,41.37
2018-02-12T04:03:47.281Z,44.77
2018-02-12T04:06:14.787Z,40.43
2018-02-12T04:08:43.073Z,45.83
2018-02-12T04:11:11.343Z,42.63
2018-02-12T04:13:39.728Z,42.77
2018-02-12T04:16:07.991Z,47.70
2018-02-12T04:18:35.494Z,46.23
2018-02-12T04:21:03.028Z,40.87
2018-02-12T04:23:31.340Z,43.37
2018-02-12T04:25:59.625Z,45.17
2018-02-12T04:28:27.127Z,48.03
2018-02-12T04:30:54.624Z,41.30
2018-02-12T04:33:22.932Z,39.57
2018-02-12T04:35:50.434Z,46.93
2018-02-12T04:38:17.935Z,40.53
2018-02-12T04:40:46.223Z,50.23
2018-02-12T04:43:13.724Z,44.90
2018-02-12T04:45:41.228Z,45.33
2018-02-12T04:48:09.524Z,45.30
2018-02-12T04:50:37.786Z,46.97
2018-02-12T04:53:06.098Z,44.83
2018-02-12T04:55:33.607Z,45.10
2018-02-12T04:58:01.113Z,42.40
2018-02-12T05:00:28.633Z,43.10
2018-02-12T05:02:56.136Z,45.23
2018-02-12T05:05:24.415Z,43.07
2018-02-12T05:07:52.038Z,41.43
2018-02-12T05:10:19.545Z,45.67
2018-02-12T05:12:47.826Z,45.70
2018-02-12T05:15:15.381Z,48.03
2018-02-12T05:17:43.674Z,47.87
2018-02-12T05:20:11.180Z,44.53
2018-02-12T05:22:38.717Z,51.33
2018-02-12T05:25:06.224Z,49.10
2018-02-12T05:27:33.737Z,44.77
2018-02-12T05:30:01.257Z,50.07
2018-02-12T05:32:28.777Z,49.10
2018-02-12T05:34:56.288Z,49.50
2018-02-12T05:37:23.810Z,50.27
2018-02-12T05:39:51.328Z,53.77
2018-02-12T05:42:19.600Z,49.53
2018-02-12T05:44:47.995Z,45.07
2018-02-12T05:47:16.264Z,50.27
2018-02-12T05:49:44.570Z,48.33
2018-02-12T05:52:12.201Z,44.77
2018-02-12T05:54:39.712Z,50.47
2018-02-12T05:57:07.219Z,53.53
2018-02-12T05:59:34.741Z,55.13
2018-02-12T06:02:02.240Z,61.20
2018-02-12T06:04:29.745Z,52.77
2018-02-12T06:06:57.261Z,59.37
2018-02-12T06:09:24.824Z,62.73
2018-02-12T06:11:52.331Z,66.57
2018-02-12T06:14:19.867Z,65.87
2018-02-12T06:16:47.375Z,59.83
2018-02-12T06:19:14.877Z,59.37
2018-02-12T06:21:42.432Z,52.40
2018-02-12T06:24:10.695Z,57.07
2018-02-12T06:26:38.205Z,59.63
2018-02-12T06:29:05.761Z,59.20
2018-02-12T06:31:33.266Z,56.80
2018-02-12T06:34:01.610Z,54.10
2018-02-12T06:36:29.160Z,59.43
2018-02-12T06:38:56.666Z,54.30
2018-02-12T06:41:24.180Z,56.00
2018-02-12T06:43:51.717Z,61.13
2018-02-12T06:46:19.223Z,58.67
2018-02-12T06:48:46.766Z,59.33
2018-02-12T06:51:14.312Z,58.20
2018-02-12T06:53:41.849Z,56.97
2018-02-12T06:56:09.366Z,58.57
2018-02-12T06:58:36.908Z,59.03
2018-02-12T07:01:04.439Z,59.83
2018-02-12T07:03:31.938Z,58.83
2018-02-12T07:05:59.477Z,59.93
2018-02-12T07:08:27.000Z,67.67
2018-02-12T07:10:55.272Z,61.30
2018-02-12T07:13:22.796Z,64.93
2018-02-12T07:15:50.305Z,64.27
2018-02-12T07:18:18.594Z,60.40
2018-02-12T07:20:46.894Z,67.17
2018-02-12T07:23:14.432Z,69.00
2018-02-12T07:25:42.746Z,64.70
2018-02-12T07:28:10.305Z,67.60
2018-02-12T07:30:37.818Z,68.30
2018-02-12T07:33:05.317Z,67.90
2018-02-12T07:35:33.658Z,74.23
2018-02-12T07:38:01.160Z,74.00
2018-02-12T07:40:29.428Z,78.00
2018-02-12T07:42:57.734Z,82.33
2018-02-12T07:45:25.273Z,80.13
2018-02-12T07:47:53.561Z,90.23
2018-02-12T07:50:21.850Z,87.27
2018-02-12T07:52:49.359Z,91.47
2018-02-12T07:55:16.872Z,86.00
2018-02-12T07:57:44.474Z,80.97
2018-02-12T08:00:12.094Z,84.03
2018-02-12T08:02:39.633Z,88.03
2018-02-12T08:05:07.302Z,80.00
2018-02-12T08:07:35.688Z,88.83
2018-02-12T08:10:03.232Z,82.57
2018-02-12T08:12:30.773Z,92.33
2018-02-12T08:14:58.325Z,77.60
2018-02-12T08:17:25.862Z,73.90
2018-02-12T08:19:54.190Z,81.67
2018-02-12T08:22:21.739Z,79.53
2018-02-12T08:24:49.455Z,89.73
2018-02-12T08:27:17.021Z,107.03
2018-02-12T08:29:44.738Z,139.53
2018-02-12T08:32:12.288Z,140.90
2018-02-12T08:34:39.890Z,115.20
2018-02-12T08:37:07.502Z,89.53
2018-02-12T08:39:35.835Z,90.77
2018-02-12T08:42:03.460Z,88.73
2018-02-12T08:44:31.083Z,88.73
2018-02-12T08:46:58.652Z,98.23
2018-02-12T08:49:26.272Z,91.03
2018-02-12T08:51:53.858Z,93.50
2018-02-12T08:54:21.491Z,95.53
2018-02-12T08:56:49.100Z,93.37
2018-02-12T08:59:16.627Z,89.97
2018-02-12T09:01:44.164Z,147.97
2018-02-12T09:04:12.508Z,96.70
2018-02-12T09:06:40.039Z,98.53
2018-02-12T09:09:07.573Z,94.37
2018-02-12T09:11:35.873Z,92.23
2018-02-12T09:14:03.410Z,100.90
2018-02-12T09:16:31.732Z,98.70
2018-02-12T09:18:59.259Z,96.23
2018-02-12T09:21:27.559Z,97.43
2018-02-12T09:23:55.096Z,96.53
2018-02-12T09:26:22.632Z,90.27
2018-02-12T09:28:50.145Z,96.37
2018-02-12T09:31:17.700Z,98.43
2018-02-12T09:33:45.264Z,103.43
2018-02-12T09:36:13.561Z,116.53
2018-02-12T09:38:41.074Z,108.73
2018-02-12T09:41:08.721Z,111.87
2018-02-12T09:43:36.233Z,97.20
2018-02-12T09:46:04.515Z,103.03
2018-02-12T09:48:32.837Z,99.87
2018-02-12T09:51:00.416Z,120.73
2018-02-12T09:53:27.949Z,119.53
2018-02-12T09:55:55.529Z,130.73
2018-02-12T09:58:23.070Z,117.10
2018-02-12T10:00:50.580Z,123.37
2018-02-12T10:03:18.140Z,109.90
2018-02-12T10:05:46.416Z,115.77
2018-02-12T10:08:13.932Z,115.07
2018-02-12T10:10:42.331Z,127.80
2018-02-12T10:13:09.895Z,129.20
2018-02-12T10:15:37.427Z,116.37
2018-02-12T10:18:05.739Z,110.20
2018-02-12T10:20:33.298Z,117.17
2018-02-12T10:23:03.947Z,114.47
2018-02-12T10:25:29.161Z,117.53
2018-02-12T10:27:56.711Z,126.53
2018-02-12T10:30:24.262Z,115.27
2018-02-12T10:32:51.830Z,100.93
2018-02-12T10:35:19.359Z,94.63
2018-02-12T10:37:47.636Z,94.17
2018-02-12T10:40:15.189Z,83.07
2018-02-12T10:42:42.720Z,84.03
2018-02-12T10:45:10.241Z,90.33
2018-02-12T10:47:38.660Z,87.47
2018-02-12T10:50:06.187Z,85.83
2018-02-12T10:52:34.461Z,96.00
2018-02-12T10:55:02.029Z,92.10
2018-02-12T10:57:30.328Z,95.87
2018-02-12T10:59:57.878Z,88.50
2018-02-12T11:02:26.198Z,91.13
2018-02-12T11:04:53.743Z,89.10
2018-02-12T11:07:21.338Z,100.93
2018-02-12T11:09:48.880Z,94.17
2018-02-12T11:12:16.404Z,104.63
2018-02-12T11:14:43.947Z,105.37
2018-02-12T11:17:11.522Z,108.33
2018-02-12T11:19:39.039Z,107.43
2018-02-12T11:22:06.552Z,102.60
2018-02-12T11:24:34.114Z,109.80
2018-02-12T11:27:01.663Z,118.00
2018-02-12T11:29:29.222Z,113.23
2018-02-12T11:31:56.766Z,114.60
2018-02-12T11:34:24.325Z,110.40
2018-02-12T11:36:51.855Z,113.87
2018-02-12T11:39:20.157Z,109.50
2018-02-12T11:41:47.707Z,108.03
2018-02-12T11:44:16.013Z,99.33
2018-02-12T11:46:43.562Z,116.30
2018-02-12T11:49:11.110Z,109.50
2018-02-12T11:51:39.386Z,97.23
2018-02-12T11:54:07.812Z,92.13
2018-02-12T11:56:35.347Z,94.60
2018-02-12T11:59:02.907Z,99.87
2018-02-12T12:01:31.327Z,96.30
2018-02-12T12:03:58.859Z,90.53
2018-02-12T12:06:26.421Z,98.73
2018-02-12T12:08:54.816Z,95.27
2018-02-12T12:11:22.421Z,137.97
2018-02-12T12:13:49.945Z,91.57
2018-02-12T12:16:17.521Z,84.77
2018-02-12T12:18:45.051Z,87.30
2018-02-12T12:21:13.341Z,91.07
2018-02-12T12:23:40.953Z,76.13
2018-02-12T12:26:09.253Z,81.40
2018-02-12T12:28:36.803Z,77.87
2018-02-12T12:31:04.393Z,78.97
2018-02-12T12:33:32.747Z,77.67
2018-02-12T12:36:00.263Z,79.00
2018-02-12T12:38:27.941Z,74.27
2018-02-12T12:40:55.456Z,75.17
2018-02-12T12:43:22.988Z,68.23
2018-02-12T12:45:50.534Z,64.57
2018-02-12T12:48:18.054Z,62.93
2018-02-12T12:50:45.574Z,65.10
2018-02-12T12:53:13.227Z,64.37
2018-02-12T12:55:40.764Z,68.83
2018-02-12T12:58:09.074Z,73.73
2018-02-12T13:00:36.733Z,70.23
2018-02-12T13:03:04.266Z,69.63
2018-02-12T13:05:32.577Z,72.77
2018-02-12T13:08:00.127Z,72.30
2018-02-12T13:10:27.640Z,79.27
2018-02-12T13:12:55.195Z,73.43
2018-02-12T13:15:22.947Z,72.90
2018-02-12T13:17:50.510Z,68.87
2018-02-12T13:20:18.040Z,67.07
2018-02-12T13:22:46.372Z,59.07
2018-02-12T13:25:14.693Z,62.90
2018-02-12T13:27:42.215Z,65.23
2018-02-12T13:30:09.762Z,56.73
2018-02-12T13:32:37.277Z,54.50
2018-02-12T13:35:04.791Z,58.10
2018-02-12T13:37:32.460Z,50.57
2018-02-12T13:39:59.971Z,49.53
2018-02-12T13:42:27.489Z,50.50
2018-02-12T13:44:55.127Z,51.30
2018-02-12T13:47:22.676Z,45.07
2018-02-12T13:49:50.961Z,47.90
2018-02-12T13:52:19.293Z,51.73
2018-02-12T13:54:46.801Z,49.70
2018-02-12T13:57:15.121Z,58.10
2018-02-12T13:59:42.649Z,55.90
2018-02-12T14:02:10.928Z,62.13
2018-02-12T14:04:39.197Z,54.17
2018-02-12T14:07:07.514Z,51.80
2018-02-12T14:09:35.029Z,49.03
2018-02-12T14:12:02.574Z,56.80
2018-02-12T14:14:30.132Z,56.10
2018-02-12T14:16:57.644Z,47.33
2018-02-12T14:19:25.961Z,55.77
2018-02-12T14:21:53.494Z,49.73
2018-02-12T14:24:21.789Z,48.60
2018-02-12T14:26:49.313Z,53.47
2018-02-12T14:29:16.864Z,49.90
2018-02-12T14:31:44.404Z,53.20
2018-02-12T14:34:11.945Z,56.23
2018-02-12T14:36:39.509Z,51.70
2018-02-12T14:39:07.031Z,51.67
2018-02-12T14:41:34.654Z,57.80
2018-02-12T14:44:02.198Z,52.37
2018-02-12T14:46:29.731Z,50.83
2018-02-12T14:48:58.035Z,46.47
2018-02-12T14:53:59.671Z,51.47
2018-02-12T14:56:27.255Z,52.30
2018-02-12T14:58:55.590Z,49.07
2018-02-12T15:01:23.104Z,54.20
2018-02-12T15:03:51.425Z,50.67
2018-02-12T15:06:18.978Z,56.87
2018-02-12T15:08:46.506Z,52.73
2018-02-12T15:11:14.055Z,48.43
2018-02-12T15:13:41.581Z,48.53
2018-02-12T15:16:09.097Z,53.63
2018-02-12T15:18:37.433Z,52.37
2018-02-12T15:21:04.948Z,67.23
2018-02-12T15:23:33.269Z,59.77
2018-02-12T15:26:00.841Z,66.37
2018-02-12T15:28:28.361Z,64.60
2018-02-12T15:30:56.662Z,70.13
2018-02-12T15:33:24.202Z,75.10
2018-02-12T15:35:52.509Z,70.70
2018-02-12T15:38:20.062Z,74.27
2018-02-12T15:40:47.655Z,114.30
2018-02-12T15:43:15.187Z,128.93
2018-02-12T15:45:42.725Z,136.87
2018-02-12T15:48:10.272Z,144.77
2018-02-12T15:50:37.794Z,159.60
2018-02-12T15:53:05.317Z,169.00
2018-02-12T15:55:32.890Z,164.30
2018-02-12T15:58:01.184Z,170.37
2018-02-12T16:00:29.504Z,169.60
2018-02-12T16:02:57.078Z,182.03
2018-02-12T16:05:24.623Z,175.87
2018-02-12T16:07:52.158Z,193.70
2018-02-12T16:10:19.740Z,195.47
2018-02-12T16:12:47.252Z,203.73
2018-02-12T16:15:14.822Z,201.00
2018-02-12T16:17:42.393Z,210.83
2018-02-12T16:20:09.926Z,214.57
2018-02-12T16:22:37.482Z,225.17
2018-02-12T16:25:05.068Z,234.33
2018-02-12T16:27:32.644Z,226.00
2018-02-12T16:30:00.982Z,243.37
2018-02-12T16:32:28.543Z,243.87
2018-02-12T16:34:56.101Z,244.77
2018-02-12T16:37:23.637Z,259.50
2018-02-12T16:39:51.982Z,259.70
2018-02-12T16:42:19.490Z,254.87
2018-02-12T16:44:47.024Z,263.83
2018-02-12T16:47:14.607Z,264.30
2018-02-12T16:49:42.932Z,278.70
2018-02-12T16:52:10.449Z,299.23
2018-02-12T16:54:38.798Z,283.53
2018-02-12T16:57:06.392Z,285.83
2018-02-12T16:59:34.779Z,299.63
2018-02-12T17:02:03.145Z,304.17
2018-02-12T17:04:30.742Z,314.30
2018-02-12T17:06:58.273Z,320.27
2018-02-12T17:09:25.851Z,299.10
2018-02-12T17:11:54.184Z,304.90
2018-02-12T17:14:21.725Z,305.63
2018-02-12T17:16:49.379Z,318.10
2018-02-12T17:19:16.982Z,312.63
2018-02-12T17:21:44.511Z,315.40
2018-02-12T17:24:12.098Z,311.27
2018-02-12T17:26:39.624Z,316.23
2018-02-12T17:29:07.924Z,313.67
2018-02-12T17:31:35.493Z,311.30
2018-02-12T17:34:03.026Z,321.37
2018-02-12T17:36:31.451Z,320.57
2018-02-12T17:38:59.133Z,303.57
2018-02-12T17:41:26.678Z,332.27
2018-02-12T17:43:54.266Z,316.70
2018-02-12T17:46:21.943Z,332.17
2018-02-12T17:48:49.607Z,323.43
2018-02-12T17:51:17.234Z,323.57
2018-02-12T17:53:44.809Z,304.83
2018-02-12T17:56:12.488Z,323.27
2018-02-12T17:58:40.065Z,332.93
2018-02-12T18:01:07.636Z,319.27
2018-02-12T18:03:35.174Z,339.97
2018-02-12T18:06:02.712Z,326.53
2018-02-12T18:08:30.373Z,322.37
2018-02-12T18:10:57.928Z,321.77
2018-02-12T18:13:26.223Z,331.40
2018-02-12T18:15:53.787Z,319.07
2018-02-12T18:18:21.362Z,341.17
2018-02-12T18:20:48.950Z,334.40
2018-02-12T18:23:16.616Z,341.53
2018-02-12T18:25:44.168Z,335.93
2018-02-12T18:28:11.702Z,328.83
2018-02-12T18:30:39.241Z,363.90
2018-02-12T18:33:06.785Z,351.90
2018-02-12T18:35:35.088Z,347.57
2018-02-12T18:38:03.399Z,341.63
2018-02-12T18:40:30.921Z,351.77
2018-02-12T18:42:58.493Z,341.60
2018-02-12T18:45:26.063Z,337.17
2018-02-12T18:47:54.375Z,351.93
2018-02-12T18:50:22.067Z,352.13
2018-02-12T18:52:49.671Z,364.80
2018-02-12T18:55:17.258Z,371.90
2018-02-12T18:57:44.792Z,363.93
2018-02-12T19:00:13.175Z,382.07
2018-02-12T19:02:40.703Z,394.00
2018-02-12T19:05:08.244Z,405.00
2018-02-12T19:07:35.800Z,387.20
2018-02-12T19:10:03.435Z,401.37
2018-02-12T19:12:31.752Z,432.57
2018-02-12T19:14:59.318Z,448.70
2018-02-12T19:17:26.840Z,453.00
2018-02-12T19:19:54.359Z,489.93
2018-02-12T19:22:21.918Z,496.80
2018-02-12T19:24:49.456Z,508.53
2018-02-12T19:27:17.761Z,489.93
2018-02-12T19:29:45.303Z,520.00
2018-02-12T19:32:12.874Z,522.00
2018-02-12T19:34:40.399Z,535.00
2018-02-12T19:37:07.952Z,542.03
2018-02-12T19:39:35.524Z,529.63
2018-02-12T19:42:03.064Z,560.60
2018-02-12T19:44:30.697Z,565.43
2018-02-12T19:46:58.224Z,592.37
2018-02-12T19:49:26.545Z,607.83
2018-02-12T19:51:54.107Z,601.50
2018-02-12T19:54:21.678Z,638.50
2018-02-12T19:56:49.213Z,639.67
2018-02-12T19:59:17.634Z,630.53
2018-02-12T20:01:45.235Z,600.47
2018-02-12T20:04:12.794Z,673.07
2018-02-12T20:06:40.392Z,660.93
2018-02-12T20:09:08.677Z,764.53
2018-02-12T20:11:37.023Z,738.90
2018-02-12T20:14:04.579Z,820.67
2018-02-12T20:16:32.096Z,799.67
2018-02-12T20:18:59.646Z,739.53
2018-02-12T20:21:27.217Z,757.90
2018-02-12T20:23:55.660Z,681.10
2018-02-12T20:26:23.277Z,663.93
2018-02-12T20:28:50.826Z,651.47
2018-02-12T20:31:19.161Z,678.93
2018-02-12T20:33:46.755Z,672.93
2018-02-12T20:36:15.070Z,575.97
2018-02-12T20:38:42.663Z,598.10
2018-02-12T20:41:10.339Z,584.50
2018-02-12T20:43:37.898Z,564.37
2018-02-12T20:46:05.431Z,546.57
2018-02-12T20:48:33.015Z,546.33
2018-02-12T20:51:00.583Z,546.73
2018-02-12T20:53:28.170Z,529.10
2018-02-12T20:55:55.820Z,593.23
2018-02-12T20:58:23.407Z,603.37
2018-02-12T21:00:50.989Z,560.63
2018-02-12T21:03:19.472Z,586.27
2018-02-12T21:05:48.163Z,574.00
2018-02-12T21:08:16.557Z,589.77
2018-02-12T21:10:44.953Z,605.87
2018-02-12T21:13:12.565Z,684.77
2018-02-12T21:15:40.175Z,674.67
2018-02-12T21:18:08.547Z,648.73
2018-02-12T21:20:36.866Z,667.70
2018-02-12T21:23:04.521Z,654.87
2018-02-12T21:25:32.092Z,652.03
2018-02-12T21:27:59.645Z,669.27
2018-02-12T21:30:27.188Z,656.97
2018-02-12T21:32:55.514Z,681.87
2018-02-12T21:35:23.160Z,741.47
2018-02-12T21:37:50.752Z,794.83
2018-02-12T21:40:18.282Z,847.70
2018-02-12T21:42:45.859Z,874.40
2018-02-12T21:45:13.439Z,866.93
2018-02-12T21:47:41.040Z,880.80
2018-02-12T21:50:08.704Z,865.60
2018-02-12T21:52:36.270Z,892.53
2018-02-12T21:55:03.835Z,840.43
2018-02-12T21:57:31.499Z,875.97
2018-02-12T21:59:59.063Z,846.23
2018-02-12T22:02:26.601Z,833.53
2018-02-12T22:04:54.190Z,809.67
2018-02-12T22:07:21.758Z,791.03
2018-02-12T22:09:49.357Z,791.83
2018-02-12T22:12:16.914Z,783.43
2018-02-12T22:14:44.528Z,755.97
2018-02-12T22:17:12.079Z,736.20
2018-02-12T22:19:39.722Z,716.07
2018-02-12T22:22:07.260Z,717.17
2018-02-12T22:24:35.541Z,753.20
2018-02-12T22:27:03.857Z,762.80
2018-02-12T22:29:31.381Z,751.37
2018-02-12T22:31:59.655Z,731.50
2018-02-12T22:34:27.327Z,771.07
2018-02-12T22:36:55.626Z,752.57
2018-02-12T22:39:23.953Z,741.63
2018-02-12T22:41:51.493Z,734.30
2018-02-12T22:44:19.015Z,728.57
2018-02-12T22:46:47.422Z,735.80
2018-02-12T22:49:14.934Z,743.87
2018-02-12T22:51:42.444Z,750.63
2018-02-12T22:54:10.004Z,770.50
2018-02-12T22:56:38.332Z,773.93
2018-02-12T22:59:05.856Z,736.47
2018-02-12T23:01:33.445Z,718.03
2018-02-12T23:04:01.005Z,749.47
2018-02-12T23:06:28.539Z,709.60
2018-02-12T23:08:56.849Z,709.33
2018-02-12T23:11:24.380Z,733.80
2018-02-12T23:13:52.660Z,736.87
2018-02-12T23:16:20.988Z,720.67
2018-02-12T23:18:48.495Z,719.23
2018-02-12T23:21:16.810Z,731.37
2018-02-12T23:23:44.366Z,726.43
2018-02-12T23:26:11.901Z,750.47
2018-02-12T23:28:40.205Z,728.93
2018-02-12T23:31:07.740Z,692.57
2018-02-12T23:33:35.302Z,660.83
2018-02-12T23:36:02.822Z,673.37
2018-02-12T23:38:30.357Z,675.77
2018-02-12T23:40:57.877Z,681.63
2018-02-12T23:43:25.420Z,678.63
2018-02-12T23:45:52.959Z,692.10
2018-02-12T23:48:20.483Z,685.33
2018-02-12T23:50:47.996Z,685.63
2018-02-12T23:53:15.649Z,683.47
2018-02-12T23:55:43.213Z,650.97
2018-02-12T23:58:10.745Z,673.10
